createdAt,value
2022-09-26T00:00:48.796Z,100.00
2022-09-26T00:01:52.986Z,100.00
2022-09-26T00:02:57.320Z,100.00
2022-09-26T00:04:01.602Z,100.00
2022-09-26T00:05:05.895Z,100.00
2022-09-26T00:06:10.203Z,100.00
2022-09-26T00:07:14.392Z,100.00
2022-09-26T00:08:18.742Z,100.00
2022-09-26T00:09:23.019Z,100.00
2022-09-26T00:10:27.279Z,100.00
2022-09-26T00:11:31.587Z,100.00
2022-09-26T00:12:35.820Z,100.00
2022-09-26T00:13:40.138Z,100.00
2022-09-26T00:14:44.367Z,100.00
2022-09-26T00:15:48.624Z,100.00
2022-09-26T00:16:52.971Z,100.00
2022-09-26T00:17:57.165Z,100.00
2022-09-26T00:19:01.397Z,100.00
2022-09-26T00:20:05.640Z,100.00
2022-09-26T00:21:09.954Z,100.00
2022-09-26T00:22:14.256Z,100.00
2022-09-26T00:23:18.472Z,100.00
2022-09-26T00:24:22.727Z,100.00
2022-09-26T00:25:27.086Z,100.00
2022-09-26T00:26:31.170Z,100.00
2022-09-26T00:27:35.444Z,100.00
2022-09-26T00:28:39.815Z,100.00
2022-09-26T00:29:44.104Z,100.00
2022-09-26T00:30:48.454Z,100.00
2022-09-26T00:31:52.650Z,100.00
2022-09-26T00:32:56.875Z,100.00
2022-09-26T00:34:01.099Z,100.00
2022-09-26T00:35:05.368Z,100.00
2022-09-26T00:36:09.636Z,100.00
2022-09-26T00:37:13.894Z,100.00
2022-09-26T00:38:18.203Z,100.00
2022-09-26T00:39:22.434Z,100.00
2022-09-26T00:40:26.920Z,100.00
2022-09-26T00:41:31.123Z,100.00
2022-09-26T00:42:35.247Z,100.00
2022-09-26T00:43:39.535Z,100.00
2022-09-26T00:44:43.804Z,100.00
2022-09-26T00:45:48.211Z,100.00
2022-09-26T00:46:52.330Z,100.00
2022-09-26T00:47:56.604Z,100.00
2022-09-26T00:49:00.913Z,100.00
2022-09-26T00:50:05.197Z,100.00
2022-09-26T00:51:09.419Z,100.00
2022-09-26T00:52:13.680Z,100.00
2022-09-26T00:53:17.989Z,100.00
2022-09-26T00:54:22.320Z,100.00
2022-09-26T00:55:26.598Z,100.00
2022-09-26T00:56:30.787Z,100.00
2022-09-26T00:57:35.120Z,100.00
2022-09-26T00:58:39.318Z,100.00
2022-09-26T00:59:43.625Z,100.00
2022-09-26T01:00:47.954Z,100.00
2022-09-26T01:01:52.293Z,100.00
2022-09-26T01:02:56.408Z,100.00
2022-09-26T01:04:00.627Z,100.00
2022-09-26T01:05:04.956Z,100.00
2022-09-26T01:06:09.149Z,100.00
2022-09-26T01:07:13.415Z,100.00
2022-09-26T01:08:17.663Z,100.00
2022-09-26T01:09:21.930Z,100.00
2022-09-26T01:10:26.202Z,100.00
2022-09-26T01:11:30.436Z,100.00
2022-09-26T01:12:34.668Z,100.00
2022-09-26T01:13:38.994Z,100.00
2022-09-26T01:14:43.195Z,100.00
2022-09-26T01:15:47.493Z,100.00
2022-09-26T01:16:51.775Z,100.00
2022-09-26T01:17:56.002Z,100.00
2022-09-26T01:19:00.298Z,100.00
2022-09-26T01:20:04.562Z,100.00
2022-09-26T01:21:08.853Z,100.00
2022-09-26T01:22:14.082Z,100.00
2022-09-26T01:23:18.010Z,100.00
2022-09-26T01:24:22.224Z,100.00
2022-09-26T01:25:26.508Z,100.00
2022-09-26T01:26:30.727Z,100.00
2022-09-26T01:27:34.965Z,100.00
2022-09-26T01:28:39.233Z,100.00
2022-09-26T01:29:43.509Z,100.00
2022-09-26T01:30:47.835Z,100.00
2022-09-26T01:31:52.032Z,100.00
2022-09-26T01:32:56.254Z,100.00
2022-09-26T01:34:00.524Z,100.00
2022-09-26T01:35:04.794Z,100.00
2022-09-26T01:36:09.074Z,100.00
2022-09-26T01:37:13.311Z,100.00
2022-09-26T01:38:17.645Z,100.00
2022-09-26T01:39:21.841Z,100.00
2022-09-26T01:40:26.129Z,100.00
2022-09-26T01:41:30.305Z,100.00
2022-09-26T01:42:34.659Z,100.00
2022-09-26T01:43:38.895Z,100.00
2022-09-26T01:44:43.131Z,100.00
2022-09-26T01:45:47.434Z,100.00
2022-09-26T01:46:51.623Z,100.00
2022-09-26T01:47:55.846Z,100.00
2022-09-26T01:49:00.130Z,100.00
2022-09-26T01:50:04.354Z,100.00
2022-09-26T01:51:08.621Z,100.00
2022-09-26T01:52:12.855Z,100.00
2022-09-26T01:53:17.083Z,100.00
2022-09-26T01:54:21.356Z,100.00
2022-09-26T01:55:25.562Z,100.00
2022-09-26T01:56:29.899Z,100.00
2022-09-26T01:57:34.101Z,100.00
2022-09-26T01:58:38.353Z,100.00
2022-09-26T01:59:42.621Z,100.00
2022-09-26T02:00:46.933Z,100.00
2022-09-26T02:01:51.284Z,100.00
2022-09-26T02:02:55.512Z,100.00
2022-09-26T02:03:59.704Z,100.00
2022-09-26T02:05:03.971Z,100.00
2022-09-26T02:06:08.181Z,100.00
2022-09-26T02:07:12.400Z,100.00
2022-09-26T02:08:16.669Z,100.00
2022-09-26T02:09:20.919Z,100.00
2022-09-26T02:10:25.159Z,100.00
2022-09-26T02:11:29.409Z,100.00
2022-09-26T02:12:33.661Z,100.00
2022-09-26T02:13:37.866Z,100.00
2022-09-26T02:14:42.221Z,100.00
2022-09-26T02:15:46.410Z,100.00
2022-09-26T02:16:50.750Z,100.00
2022-09-26T02:17:54.932Z,100.00
2022-09-26T02:18:59.146Z,100.00
2022-09-26T02:20:03.399Z,100.00
2022-09-26T02:21:07.627Z,100.00
2022-09-26T02:22:11.839Z,100.00
2022-09-26T02:23:16.150Z,100.00
2022-09-26T02:24:20.328Z,100.00
2022-09-26T02:25:24.592Z,100.00
2022-09-26T02:26:28.850Z,100.00
2022-09-26T02:27:33.162Z,100.00
2022-09-26T02:28:37.394Z,100.00
2022-09-26T02:29:41.577Z,100.00
2022-09-26T02:30:45.847Z,100.00
2022-09-26T02:31:50.179Z,100.00
2022-09-26T02:32:54.344Z,100.00
2022-09-26T02:33:58.636Z,100.00
2022-09-26T02:35:02.845Z,100.00
2022-09-26T02:36:07.076Z,100.00
2022-09-26T02:37:11.283Z,100.00
2022-09-26T02:38:15.530Z,100.00
2022-09-26T02:39:19.828Z,100.00
2022-09-26T02:40:24.083Z,100.00
2022-09-26T02:41:28.287Z,100.00
2022-09-26T02:42:32.523Z,100.00
2022-09-26T02:43:36.767Z,100.00
2022-09-26T02:44:41.000Z,100.00
2022-09-26T02:45:45.287Z,100.00
2022-09-26T02:46:49.581Z,100.00
2022-09-26T02:47:53.749Z,100.00
2022-09-26T02:48:58.076Z,100.00
2022-09-26T02:50:02.253Z,100.00
2022-09-26T02:51:06.492Z,100.00
2022-09-26T02:52:10.714Z,100.00
2022-09-26T02:53:14.965Z,100.00
2022-09-26T02:54:19.285Z,100.00
2022-09-26T02:55:23.455Z,100.00
2022-09-26T02:56:27.755Z,100.00
2022-09-26T02:57:31.932Z,100.00
2022-09-26T02:58:36.170Z,100.00
2022-09-26T02:59:40.437Z,100.00
2022-09-26T03:00:44.696Z,100.00
2022-09-26T03:01:48.894Z,100.00
2022-09-26T03:02:53.241Z,100.00
2022-09-26T03:03:57.521Z,100.00
2022-09-26T03:05:01.768Z,100.00
2022-09-26T03:06:05.957Z,100.00
2022-09-26T03:07:10.140Z,100.00
2022-09-26T03:08:14.395Z,100.00
2022-09-26T03:09:18.638Z,100.00
2022-09-26T03:10:22.865Z,100.00
2022-09-26T03:11:27.114Z,100.00
2022-09-26T03:12:31.387Z,100.00
2022-09-26T03:13:35.635Z,100.00
2022-09-26T03:14:39.862Z,100.00
2022-09-26T03:15:44.091Z,100.00
2022-09-26T03:16:48.456Z,100.00
2022-09-26T03:17:52.606Z,100.00
2022-09-26T03:18:56.878Z,100.00
2022-09-26T03:20:01.096Z,100.00
2022-09-26T03:21:05.207Z,100.00
2022-09-26T03:22:09.763Z,100.00
2022-09-26T03:23:13.856Z,100.00
2022-09-26T03:24:18.085Z,100.00
2022-09-26T03:25:22.331Z,100.00
2022-09-26T03:26:26.613Z,100.00
2022-09-26T03:27:30.897Z,100.00
2022-09-26T03:28:37.773Z,100.00
2022-09-26T03:29:39.323Z,100.00
2022-09-26T03:30:43.583Z,100.00
2022-09-26T03:31:47.935Z,100.00
2022-09-26T03:32:52.133Z,100.00
2022-09-26T03:33:56.405Z,100.00
2022-09-26T03:35:00.633Z,100.00
2022-09-26T03:36:04.879Z,100.00
2022-09-26T03:37:09.121Z,100.00
2022-09-26T03:38:14.520Z,100.00
2022-09-26T03:39:17.708Z,100.00
2022-09-26T03:40:22.076Z,100.00
2022-09-26T03:41:26.299Z,100.00
2022-09-26T03:42:30.512Z,100.00
2022-09-26T03:43:34.855Z,100.00
2022-09-26T03:44:39.127Z,100.00
2022-09-26T03:45:43.362Z,100.00
2022-09-26T03:46:47.575Z,100.00
2022-09-26T03:47:51.820Z,100.00
2022-09-26T03:48:56.138Z,100.00
2022-09-26T03:50:00.410Z,100.00
2022-09-26T03:51:04.648Z,100.00
2022-09-26T03:52:08.912Z,100.00
2022-09-26T03:53:13.112Z,100.00
2022-09-26T03:54:17.469Z,100.00
2022-09-26T03:55:21.620Z,100.00
2022-09-26T03:56:25.755Z,100.00
2022-09-26T03:57:30.073Z,100.00
2022-09-26T03:58:34.385Z,100.00
2022-09-26T03:59:38.663Z,100.00
2022-09-26T04:00:42.973Z,100.00
2022-09-26T04:01:47.171Z,100.00
2022-09-26T04:02:51.355Z,100.00
2022-09-26T04:03:55.700Z,100.00
2022-09-26T04:04:59.893Z,100.00
2022-09-26T04:06:04.194Z,100.00
2022-09-26T04:07:08.393Z,100.00
2022-09-26T04:08:12.594Z,100.00
2022-09-26T04:09:17.398Z,100.00
2022-09-26T04:10:21.149Z,100.00
2022-09-26T04:11:25.367Z,100.00
2022-09-26T04:12:29.677Z,100.00
2022-09-26T04:13:50.790Z,100.00
2022-09-26T04:14:38.077Z,100.00
2022-09-26T04:15:42.301Z,100.00
2022-09-26T04:16:46.596Z,100.00
2022-09-26T04:17:50.748Z,100.00
2022-09-26T04:18:55.129Z,100.00
2022-09-26T04:19:59.275Z,100.00
2022-09-26T04:21:06.792Z,100.00
2022-09-26T04:22:07.786Z,100.00
2022-09-26T04:23:12.009Z,100.00
2022-09-26T04:24:16.210Z,100.00
2022-09-26T04:25:20.453Z,100.00
2022-09-26T04:26:24.900Z,100.00
2022-09-26T04:27:28.997Z,100.00
2022-09-26T04:28:33.201Z,100.00
2022-09-26T04:29:37.398Z,100.00
2022-09-26T04:30:41.640Z,100.00
2022-09-26T04:31:46.001Z,100.00
2022-09-26T04:32:50.091Z,100.00
2022-09-26T04:33:54.265Z,100.00
2022-09-26T04:34:58.571Z,100.00
2022-09-26T04:36:02.809Z,100.00
2022-09-26T04:37:07.052Z,100.00
2022-09-26T04:38:11.267Z,100.00
2022-09-26T04:39:15.724Z,100.00
2022-09-26T04:40:20.843Z,100.00
2022-09-26T04:41:24.606Z,100.00
2022-09-26T04:42:28.821Z,100.00
2022-09-26T04:43:33.124Z,100.00
2022-09-26T04:44:38.234Z,100.00
2022-09-26T04:45:42.121Z,100.00
2022-09-26T04:46:46.294Z,100.00
2022-09-26T04:47:50.621Z,100.00
2022-09-26T04:48:54.850Z,100.00
2022-09-26T04:49:59.064Z,100.00
2022-09-26T04:51:03.380Z,100.00
2022-09-26T04:52:07.584Z,100.00
2022-09-26T04:53:11.833Z,100.00
2022-09-26T04:54:16.077Z,100.00
2022-09-26T04:55:20.315Z,100.00
2022-09-26T04:56:24.536Z,100.00
2022-09-26T04:57:28.655Z,100.00
2022-09-26T04:58:33.053Z,100.00
2022-09-26T04:59:37.223Z,100.00
2022-09-26T05:00:41.628Z,100.00
2022-09-26T05:01:45.765Z,100.00
2022-09-26T05:02:49.924Z,100.00
2022-09-26T05:03:54.181Z,100.00
2022-09-26T05:04:58.406Z,100.00
2022-09-26T05:06:02.659Z,100.00
2022-09-26T05:07:06.911Z,100.00
2022-09-26T05:08:11.143Z,100.00
2022-09-26T05:09:15.493Z,100.00
2022-09-26T05:10:19.666Z,100.00
2022-09-26T05:11:23.880Z,100.00
2022-09-26T05:12:28.226Z,100.00
2022-09-26T05:13:32.429Z,100.00
2022-09-26T05:14:36.677Z,100.00
2022-09-26T05:15:40.870Z,100.00
2022-09-26T05:16:45.279Z,100.00
2022-09-26T05:17:49.441Z,100.00
2022-09-26T05:18:53.704Z,100.00
2022-09-26T05:19:57.951Z,100.00
2022-09-26T05:21:02.202Z,100.00
2022-09-26T05:22:06.447Z,100.00
2022-09-26T05:23:10.679Z,100.00
2022-09-26T05:24:14.902Z,100.00
2022-09-26T05:25:19.105Z,100.00
2022-09-26T05:26:23.347Z,100.00
2022-09-26T05:27:27.584Z,100.00
2022-09-26T05:28:31.857Z,100.00
2022-09-26T05:29:36.104Z,100.00
2022-09-26T05:30:40.473Z,100.00
2022-09-26T05:31:44.690Z,100.00
2022-09-26T05:32:48.876Z,100.00
2022-09-26T05:33:53.124Z,100.00
2022-09-26T05:34:57.471Z,100.00
2022-09-26T05:36:01.666Z,100.00
2022-09-26T05:37:05.907Z,100.00
2022-09-26T05:38:10.148Z,100.00
2022-09-26T05:39:14.482Z,100.00
2022-09-26T05:40:18.743Z,100.00
2022-09-26T05:41:22.925Z,100.00
2022-09-26T05:42:27.176Z,100.00
2022-09-26T05:43:31.391Z,100.00
2022-09-26T05:44:35.649Z,100.00
2022-09-26T05:45:39.868Z,100.00
2022-09-26T05:46:44.275Z,100.00
2022-09-26T05:47:48.435Z,100.00
2022-09-26T05:48:52.684Z,100.00
2022-09-26T05:49:56.838Z,100.00
2022-09-26T05:51:01.209Z,100.00
2022-09-26T05:52:05.411Z,100.00
2022-09-26T05:53:09.661Z,100.00
2022-09-26T05:54:13.914Z,100.00
2022-09-26T05:55:18.323Z,100.00
2022-09-26T05:56:22.612Z,100.00
2022-09-26T05:57:26.769Z,100.00
2022-09-26T05:58:31.050Z,100.00
2022-09-26T05:59:35.273Z,100.00
2022-09-26T06:00:39.588Z,100.00
2022-09-26T06:01:43.887Z,100.00
2022-09-26T06:02:48.054Z,100.00
2022-09-26T06:03:52.351Z,100.00
2022-09-26T06:04:56.565Z,100.00
2022-09-26T06:06:00.807Z,100.00
2022-09-26T06:07:05.042Z,100.00
2022-09-26T06:08:09.368Z,100.00
2022-09-26T06:09:13.582Z,100.00
2022-09-26T06:10:17.902Z,100.00
2022-09-26T06:11:22.102Z,100.00
2022-09-26T06:12:26.290Z,100.00
2022-09-26T06:13:30.548Z,100.00
2022-09-26T06:14:34.780Z,100.00
2022-09-26T06:15:39.114Z,100.00
2022-09-26T06:16:43.360Z,100.00
2022-09-26T06:17:47.543Z,100.00
2022-09-26T06:18:54.868Z,100.00
2022-09-26T06:19:58.126Z,100.00
2022-09-26T06:21:02.356Z,100.00
2022-09-26T06:22:06.614Z,100.00
2022-09-26T06:23:10.890Z,100.00
2022-09-26T06:24:15.215Z,100.00
2022-09-26T06:25:19.433Z,100.00
2022-09-26T06:26:23.717Z,100.00
2022-09-26T06:27:27.941Z,100.00
2022-09-26T06:28:32.308Z,100.00
2022-09-26T06:29:36.506Z,100.00
2022-09-26T06:30:40.793Z,100.00
2022-09-26T06:31:45.188Z,100.00
2022-09-26T06:32:49.319Z,100.00
2022-09-26T06:33:53.574Z,100.00
2022-09-26T06:34:57.855Z,100.00
2022-09-26T06:36:02.141Z,100.00
2022-09-26T06:37:06.378Z,100.00
2022-09-26T06:38:10.710Z,100.00
2022-09-26T06:39:15.126Z,100.00
2022-09-26T06:40:19.328Z,100.00
2022-09-26T06:41:23.466Z,100.00
2022-09-26T06:42:27.766Z,100.00
2022-09-26T06:43:31.985Z,100.00
2022-09-26T06:44:36.345Z,100.00
2022-09-26T06:45:40.641Z,100.00
2022-09-26T06:46:44.953Z,100.00
2022-09-26T06:47:49.123Z,100.00
2022-09-26T06:48:53.390Z,100.00
2022-09-26T06:49:57.749Z,100.00
2022-09-26T06:51:02.038Z,100.00
2022-09-26T06:52:06.188Z,100.00
2022-09-26T06:53:10.503Z,100.00
2022-09-26T06:54:14.753Z,100.00
2022-09-26T06:55:19.081Z,100.00
2022-09-26T06:56:23.271Z,100.00
2022-09-26T06:57:27.531Z,100.00
2022-09-26T06:58:31.853Z,100.00
2022-09-26T06:59:36.096Z,100.00
2022-09-26T07:00:40.471Z,100.00
2022-09-26T07:01:44.777Z,100.00
2022-09-26T07:02:48.937Z,100.00
2022-09-26T07:03:54.444Z,100.00
2022-09-26T07:04:57.414Z,100.00
2022-09-26T07:06:01.774Z,100.00
2022-09-26T07:07:06.020Z,100.00
2022-09-26T07:08:13.266Z,100.00
2022-09-26T07:09:17.042Z,100.00
2022-09-26T07:10:20.844Z,100.00
2022-09-26T07:11:38.206Z,100.00
2022-09-26T07:12:29.408Z,100.00
2022-09-26T07:13:33.766Z,100.00
2022-09-26T07:14:38.004Z,100.00
2022-09-26T07:15:42.404Z,100.00
2022-09-26T07:16:46.600Z,100.00
2022-09-26T07:17:50.869Z,100.00
2022-09-26T07:18:55.161Z,100.00
2022-09-26T07:19:59.441Z,100.00
2022-09-26T07:21:03.643Z,100.00
2022-09-26T07:22:08.099Z,100.00
2022-09-26T07:23:12.185Z,100.00
2022-09-26T07:24:16.515Z,100.00
2022-09-26T07:25:20.747Z,100.00
2022-09-26T07:26:25.106Z,100.00
2022-09-26T07:27:29.418Z,100.00
2022-09-26T07:28:33.656Z,100.00
2022-09-26T07:29:37.916Z,100.00
2022-09-26T07:30:42.198Z,100.00
2022-09-26T07:31:46.532Z,100.00
2022-09-26T07:32:50.664Z,100.00
2022-09-26T07:33:55.039Z,100.00
2022-09-26T07:34:59.281Z,100.00
2022-09-26T07:36:05.667Z,100.00
2022-09-26T07:37:07.868Z,100.00
2022-09-26T07:38:12.202Z,100.00
2022-09-26T07:39:16.657Z,100.00
2022-09-26T07:40:20.710Z,100.00
2022-09-26T07:41:24.979Z,100.00
2022-09-26T07:42:29.223Z,100.00
2022-09-26T07:44:19.246Z,100.00
2022-09-26T07:45:42.052Z,100.00
2022-09-26T07:46:46.469Z,100.00
2022-09-26T07:47:50.717Z,100.00
2022-09-26T07:48:54.996Z,100.00
2022-09-26T07:49:59.333Z,100.00
2022-09-26T07:51:08.433Z,100.00
2022-09-26T07:52:07.871Z,100.00
2022-09-26T07:53:12.181Z,100.00
2022-09-26T07:54:16.544Z,100.00
2022-09-26T07:55:20.742Z,100.00
2022-09-26T07:56:25.129Z,100.00
2022-09-26T07:57:29.402Z,100.00
2022-09-26T07:58:33.653Z,100.00
2022-09-26T07:59:37.954Z,100.00
2022-09-26T08:00:42.235Z,100.00
2022-09-26T08:01:46.613Z,100.00
2022-09-26T08:02:50.989Z,100.00
2022-09-26T08:03:55.116Z,100.00
2022-09-26T08:05:01.193Z,100.00
2022-09-26T08:06:03.654Z,100.00
2022-09-26T08:07:08.033Z,100.00
2022-09-26T08:08:12.258Z,100.00
2022-09-26T08:09:16.641Z,100.00
2022-09-26T08:10:20.870Z,100.00
2022-09-26T08:11:25.252Z,100.00
2022-09-26T08:12:29.474Z,100.00
2022-09-26T08:13:33.703Z,100.00
2022-09-26T08:14:38.067Z,100.00
2022-09-26T08:15:42.393Z,100.00
2022-09-26T08:16:46.566Z,100.00
2022-09-26T08:17:50.943Z,100.00
2022-09-26T08:18:55.291Z,100.00
2022-09-26T08:19:59.527Z,100.00
2022-09-26T08:21:03.830Z,100.00
2022-09-26T08:22:08.145Z,100.00
2022-09-26T08:23:12.371Z,100.00
2022-09-26T08:24:16.776Z,100.00
2022-09-26T08:25:20.936Z,100.00
2022-09-26T08:26:25.252Z,100.00
2022-09-26T08:27:29.578Z,100.00
2022-09-26T08:28:33.831Z,100.00
2022-09-26T08:29:38.120Z,100.00
2022-09-26T08:30:42.375Z,100.00
2022-09-26T08:31:46.699Z,100.00
2022-09-26T08:32:50.953Z,100.00
2022-09-26T08:33:55.260Z,100.00
2022-09-26T08:34:59.532Z,100.00
2022-09-26T08:36:03.870Z,100.00
2022-09-26T08:37:08.109Z,100.00
2022-09-26T08:38:12.456Z,100.00
2022-09-26T08:39:16.677Z,100.00
2022-09-26T08:40:21.200Z,100.00
2022-09-26T08:41:25.246Z,100.00
2022-09-26T08:42:29.505Z,100.00
2022-09-26T08:43:33.880Z,100.00
2022-09-26T08:44:38.122Z,100.00
2022-09-26T08:45:47.275Z,100.00
2022-09-26T08:46:46.808Z,100.00
2022-09-26T08:47:50.982Z,100.00
2022-09-26T08:48:55.307Z,100.00
2022-09-26T08:49:59.563Z,100.00
2022-09-26T08:51:03.938Z,100.00
2022-09-26T08:52:08.267Z,100.00
2022-09-26T08:53:12.534Z,100.00
2022-09-26T08:54:16.790Z,100.00
2022-09-26T08:55:21.114Z,100.00
2022-09-26T08:56:25.525Z,100.00
2022-09-26T08:57:29.809Z,100.00
2022-09-26T08:58:34.170Z,100.00
2022-09-26T08:59:38.365Z,100.00
2022-09-26T09:00:42.711Z,100.00
2022-09-26T09:01:47.227Z,100.00
2022-09-26T09:02:51.375Z,100.00
2022-09-26T09:03:55.537Z,100.00
2022-09-26T09:04:59.812Z,100.00
2022-09-26T09:06:04.170Z,100.00
2022-09-26T09:07:08.489Z,100.00
2022-09-26T09:08:12.819Z,100.00
2022-09-26T09:09:17.051Z,100.00
2022-09-26T09:10:21.375Z,100.00
2022-09-26T09:11:25.714Z,100.00
2022-09-26T09:12:32.259Z,100.00
2022-09-26T09:13:34.256Z,100.00
2022-09-26T09:14:38.646Z,100.00
2022-09-26T09:15:42.879Z,100.00
2022-09-26T09:16:47.176Z,100.00
2022-09-26T09:17:51.650Z,100.00
2022-09-26T09:18:57.272Z,100.00
2022-09-26T09:20:01.251Z,100.00
2022-09-26T09:21:05.513Z,100.00
2022-09-26T09:22:09.865Z,99.88
2022-09-26T09:23:14.208Z,99.92
2022-09-26T09:24:18.618Z,100.00
2022-09-26T09:25:22.858Z,99.94
2022-09-26T09:28:35.719Z,99.82
2022-09-26T09:29:40.077Z,99.32
2022-09-26T09:30:44.466Z,99.09
2022-09-26T09:31:48.766Z,99.07
2022-09-26T09:32:53.001Z,98.71
2022-09-26T09:33:57.297Z,98.37
2022-09-26T09:35:01.557Z,98.19
2022-09-26T09:36:05.852Z,98.37
2022-09-26T09:37:10.137Z,98.58
2022-09-26T09:38:14.369Z,98.96
2022-09-26T09:39:18.693Z,99.04
2022-09-26T09:40:23.075Z,98.80
2022-09-26T09:41:27.279Z,98.71
2022-09-26T09:42:31.675Z,98.35
2022-09-26T09:43:36.008Z,97.88
2022-09-26T09:44:45.630Z,97.84
2022-09-26T09:45:44.516Z,97.85
2022-09-26T09:46:48.943Z,97.33
2022-09-26T09:47:53.147Z,97.11
2022-09-26T09:48:57.454Z,97.27
2022-09-26T09:50:01.689Z,97.48
2022-09-26T09:51:06.075Z,97.75
2022-09-26T09:52:10.317Z,98.05
2022-09-26T09:53:14.675Z,98.19
2022-09-26T09:54:18.929Z,98.50
2022-09-26T09:55:23.249Z,98.50
2022-09-26T09:56:27.529Z,98.68
2022-09-26T09:57:32.012Z,98.28
2022-09-26T09:58:36.236Z,97.45
2022-09-26T09:59:40.596Z,97.69
2022-09-26T10:00:49.030Z,97.29
2022-09-26T10:01:49.241Z,97.22
2022-09-26T10:02:53.550Z,97.35
2022-09-26T10:03:57.749Z,96.98
2022-09-26T10:05:02.157Z,96.51
2022-09-26T10:06:09.427Z,96.16
2022-09-26T10:07:10.663Z,95.85
2022-09-26T10:08:14.938Z,95.71
2022-09-26T10:09:38.773Z,95.54
2022-09-26T10:10:23.757Z,95.26
2022-09-26T10:11:28.102Z,95.31
2022-09-26T10:12:32.384Z,95.38
2022-09-26T10:13:36.741Z,95.35
2022-09-26T10:14:40.989Z,94.81
2022-09-26T10:15:45.285Z,94.73
2022-09-26T10:16:49.604Z,94.94
2022-09-26T10:18:19.864Z,94.69
2022-09-26T10:19:03.115Z,94.27
2022-09-26T10:20:02.578Z,94.20
2022-09-26T10:21:06.858Z,93.93
2022-09-26T10:22:11.233Z,93.73
2022-09-26T10:23:15.546Z,93.87
2022-09-26T10:24:19.850Z,93.61
2022-09-26T10:25:24.096Z,93.87
2022-09-26T10:26:31.413Z,93.56
2022-09-26T10:27:32.660Z,92.70
2022-09-26T10:28:36.936Z,93.15
2022-09-26T10:29:41.244Z,93.47
2022-09-26T10:30:45.674Z,93.25
2022-09-26T10:31:49.869Z,93.51
2022-09-26T10:32:56.504Z,93.45
2022-09-26T10:33:58.441Z,93.51
2022-09-26T10:35:02.757Z,93.31
2022-09-26T10:36:07.103Z,93.47
2022-09-26T10:37:11.448Z,93.34
2022-09-26T10:38:15.702Z,92.99
2022-09-26T10:39:20.015Z,93.28
2022-09-26T10:40:24.504Z,93.40
2022-09-26T10:41:28.734Z,93.53
2022-09-26T10:42:33.040Z,93.63
2022-09-26T10:43:37.490Z,93.67
2022-09-26T10:44:41.809Z,93.47
2022-09-26T10:45:46.023Z,92.97
2022-09-26T10:46:50.423Z,92.69
2022-09-26T10:47:54.662Z,93.22
2022-09-26T10:48:58.957Z,93.56
2022-09-26T10:50:03.241Z,93.71
2022-09-26T10:51:07.584Z,93.76
2022-09-26T10:52:17.581Z,93.99
2022-09-26T10:53:16.322Z,94.19
2022-09-26T10:54:20.684Z,94.20
2022-09-26T10:55:24.978Z,94.03
2022-09-26T10:56:29.298Z,93.86
2022-09-26T10:57:33.618Z,94.00
2022-09-26T10:58:37.795Z,94.29
2022-09-26T10:59:42.148Z,94.16
2022-09-26T11:00:46.437Z,93.90
2022-09-26T11:01:50.783Z,93.63
2022-09-26T11:02:55.038Z,93.51
2022-09-26T11:03:59.537Z,93.67
2022-09-26T11:05:03.719Z,93.50
2022-09-26T11:06:08.119Z,92.91
2022-09-26T11:07:12.453Z,92.96
2022-09-26T11:08:16.667Z,92.45
2022-09-26T11:09:21.099Z,92.39
2022-09-26T11:10:25.436Z,91.43
2022-09-26T11:11:29.874Z,91.24
2022-09-26T11:12:34.139Z,91.32
2022-09-26T11:13:38.419Z,91.41
2022-09-26T11:14:43.711Z,91.98
2022-09-26T11:15:47.649Z,92.49
2022-09-26T11:16:51.922Z,92.37
2022-09-26T11:17:56.204Z,91.86
2022-09-26T11:19:00.514Z,91.15
2022-09-26T11:20:04.874Z,90.36
2022-09-26T11:21:27.516Z,90.16
2022-09-26T11:22:13.420Z,89.94
2022-09-26T11:23:17.709Z,89.83
2022-09-26T11:24:22.095Z,89.16
2022-09-26T11:25:26.334Z,88.47
2022-09-26T11:26:30.636Z,89.33
2022-09-26T11:27:34.942Z,88.88
2022-09-26T11:28:39.269Z,88.37
2022-09-26T11:29:43.676Z,87.65
2022-09-26T11:30:47.998Z,87.74
2022-09-26T11:31:52.701Z,86.96
2022-09-26T11:32:56.555Z,87.25
2022-09-26T11:34:01.064Z,86.89
2022-09-26T11:35:05.301Z,87.20
2022-09-26T11:36:09.594Z,87.72
2022-09-26T11:37:14.032Z,86.29
2022-09-26T11:38:18.266Z,85.55
2022-09-26T11:39:22.748Z,86.41
2022-09-26T11:40:27.015Z,86.36
2022-09-26T11:41:31.398Z,85.92
2022-09-26T11:42:35.807Z,85.58
2022-09-26T11:43:40.146Z,85.85
2022-09-26T11:44:44.482Z,85.90
2022-09-26T11:45:48.838Z,85.05
2022-09-26T11:46:53.223Z,85.06
2022-09-26T11:47:57.372Z,84.45
2022-09-26T11:49:01.668Z,84.64
2022-09-26T11:50:06.052Z,84.84
2022-09-26T11:51:10.316Z,84.64
2022-09-26T11:52:14.756Z,84.64
2022-09-26T11:53:19.029Z,84.51
2022-09-26T11:54:23.336Z,83.86
2022-09-26T11:55:27.835Z,84.55
2022-09-26T11:56:32.016Z,84.67
2022-09-26T11:57:36.437Z,85.10
2022-09-26T11:58:40.685Z,85.01
2022-09-26T11:59:45.183Z,85.09
2022-09-26T12:00:49.407Z,84.79
2022-09-26T12:01:53.733Z,83.97
2022-09-26T12:02:58.088Z,83.38
2022-09-26T12:04:02.505Z,82.64
2022-09-26T12:05:06.740Z,82.12
2022-09-26T12:06:11.079Z,81.51
2022-09-26T12:07:15.480Z,80.58
2022-09-26T12:08:19.761Z,80.48
2022-09-26T12:09:24.159Z,80.82
2022-09-26T12:10:28.401Z,80.29
2022-09-26T12:11:32.760Z,80.94
2022-09-26T12:12:40.574Z,81.16
2022-09-26T12:13:41.380Z,80.07
2022-09-26T12:14:45.696Z,80.14
2022-09-26T12:15:50.061Z,81.25
2022-09-26T12:16:54.307Z,80.15
2022-09-26T12:17:58.619Z,79.01
2022-09-26T12:19:02.942Z,79.25
2022-09-26T12:20:07.244Z,78.89
2022-09-26T12:21:11.618Z,79.04
2022-09-26T12:22:15.979Z,79.13
2022-09-26T12:23:20.324Z,79.12
2022-09-26T12:24:24.625Z,79.47
2022-09-26T12:25:28.983Z,80.61
2022-09-26T12:26:33.252Z,80.12
2022-09-26T12:27:37.609Z,80.07
2022-09-26T12:28:41.899Z,80.81
2022-09-26T12:29:46.297Z,80.95
2022-09-26T12:30:50.622Z,81.05
2022-09-26T12:31:55.100Z,81.08
2022-09-26T12:32:59.323Z,81.46
2022-09-26T12:34:03.703Z,81.58
2022-09-26T12:35:07.919Z,81.01
2022-09-26T12:36:12.252Z,80.95
2022-09-26T12:37:16.673Z,80.48
2022-09-26T12:38:20.960Z,80.81
2022-09-26T12:39:25.342Z,81.14
2022-09-26T12:40:30.705Z,81.43
2022-09-26T12:41:34.553Z,81.97
2022-09-26T12:42:38.883Z,82.36
2022-09-26T12:43:43.231Z,82.53
2022-09-26T12:44:47.498Z,82.67
2022-09-26T12:45:53.385Z,82.64
2022-09-26T12:46:56.263Z,82.87
2022-09-26T12:49:27.793Z,82.95
2022-09-26T12:50:31.965Z,82.85
2022-09-26T12:51:36.175Z,82.99
2022-09-26T12:52:40.431Z,83.21
2022-09-26T12:53:45.763Z,82.91
2022-09-26T12:54:49.719Z,82.77
2022-09-26T12:55:54.075Z,82.72
2022-09-26T12:56:58.321Z,82.82
2022-09-26T12:58:02.599Z,82.41
2022-09-26T12:59:07.088Z,82.92
2022-09-26T13:00:14.294Z,83.02
2022-09-26T13:01:17.877Z,83.11
2022-09-26T13:02:22.167Z,83.20
2022-09-26T13:03:26.365Z,83.06
2022-09-26T13:04:30.774Z,82.78
2022-09-26T13:05:35.187Z,82.99
2022-09-26T13:06:39.391Z,83.30
2022-09-26T13:07:43.798Z,83.72
2022-09-26T13:08:48.161Z,83.84
2022-09-26T13:09:52.439Z,83.90
2022-09-26T13:10:56.738Z,83.69
2022-09-26T13:12:01.155Z,83.83
2022-09-26T13:13:05.500Z,83.36
2022-09-26T13:14:09.877Z,83.40
2022-09-26T13:15:14.247Z,83.87
2022-09-26T13:16:18.654Z,84.08
2022-09-26T13:17:22.814Z,84.26
2022-09-26T13:18:28.257Z,84.36
2022-09-26T13:19:31.455Z,84.15
2022-09-26T13:20:35.817Z,83.97
2022-09-26T13:21:40.118Z,83.66
2022-09-26T13:22:44.530Z,82.72
2022-09-26T13:23:48.786Z,82.84
2022-09-26T13:24:53.090Z,82.76
2022-09-26T13:25:57.454Z,82.54
2022-09-26T13:27:01.796Z,82.52
2022-09-26T13:28:06.149Z,82.59
2022-09-26T13:29:17.518Z,82.49
2022-09-26T13:30:14.751Z,82.78
2022-09-26T13:31:19.181Z,82.99
2022-09-26T13:32:23.372Z,82.86
2022-09-26T13:33:27.828Z,82.83
2022-09-26T13:34:32.218Z,82.48